createdAt,value
2023-03-29T00:00:14.162Z,100617.38
2023-03-29T00:03:03.873Z,100620.39
2023-03-29T00:05:34.903Z,100621.86
2023-03-29T00:08:03.963Z,100621.62
2023-03-29T00:10:33.460Z,100621.76
2023-03-29T00:13:02.170Z,100626.02
2023-03-29T00:15:29.944Z,100627.38
2023-03-29T00:17:58.085Z,100625.53
2023-03-29T00:20:25.832Z,100625.35
2023-03-29T00:22:53.350Z,100626.52
2023-03-29T00:25:20.938Z,100624.84
2023-03-29T00:27:48.535Z,100624.70
2023-03-29T00:30:16.711Z,100621.63
2023-03-29T00:32:44.587Z,100626.08
2023-03-29T00:35:12.659Z,100623.66
2023-03-29T00:37:41.131Z,100626.88
2023-03-29T00:40:11.558Z,100629.27
2023-03-29T00:42:39.274Z,100630.29
2023-03-29T00:45:10.016Z,100628.94
2023-03-29T00:47:47.201Z,100627.93
2023-03-29T00:50:16.481Z,100626.34
2023-03-29T00:52:59.668Z,100628.36
2023-03-29T00:55:32.369Z,100625.48
2023-03-29T00:58:01.122Z,100621.42
2023-03-29T01:00:33.377Z,100620.70
2023-03-29T01:03:05.121Z,100620.83
2023-03-29T01:05:37.958Z,100620.45
2023-03-29T01:08:11.357Z,100617.66
2023-03-29T01:10:43.796Z,100617.79
2023-03-29T01:13:17.605Z,100618.15
2023-03-29T01:15:46.760Z,100617.29
2023-03-29T01:18:14.509Z,100615.91
2023-03-29T01:20:44.895Z,100615.69
2023-03-29T01:23:45.698Z,100616.34
2023-03-29T01:26:45.114Z,100613.37
2023-03-29T01:29:20.882Z,100609.25
2023-03-29T01:31:58.693Z,100610.92
2023-03-29T01:34:42.157Z,100612.58
2023-03-29T01:37:41.200Z,100611.31
2023-03-29T01:40:10.662Z,100610.04
2023-03-29T01:42:54.382Z,100612.40
2023-03-29T01:45:44.494Z,100614.05
2023-03-29T01:48:28.028Z,100610.42
2023-03-29T01:51:07.247Z,100609.13
2023-03-29T01:53:45.457Z,100608.59
2023-03-29T01:56:23.541Z,100610.39
2023-03-29T01:58:58.055Z,100607.61
2023-03-29T02:01:30.041Z,100609.33
2023-03-29T02:04:03.510Z,100613.58
2023-03-29T02:06:34.056Z,100618.55
2023-03-29T02:09:02.554Z,100616.43
2023-03-29T02:11:30.188Z,100615.55
2023-03-29T02:13:57.903Z,100619.60
2023-03-29T02:16:25.445Z,100618.85
2023-03-29T02:18:56.188Z,100619.46
2023-03-29T02:21:32.534Z,100620.13
2023-03-29T02:24:06.450Z,100624.04
2023-03-29T02:26:34.088Z,100622.73
2023-03-29T02:29:01.906Z,100621.05
2023-03-29T02:31:55.217Z,100619.66
2023-03-29T02:34:32.781Z,100618.98
2023-03-29T02:37:06.590Z,100623.36
2023-03-29T02:39:35.759Z,100618.23
2023-03-29T02:42:05.177Z,100618.89
2023-03-29T02:44:37.792Z,100616.80
2023-03-29T02:47:15.958Z,100616.29
2023-03-29T02:49:44.026Z,100614.78
2023-03-29T02:52:16.778Z,100615.47
2023-03-29T02:54:46.501Z,100617.88
2023-03-29T02:57:14.196Z,100615.16
2023-03-29T02:59:44.082Z,100615.44
2023-03-29T03:02:12.258Z,100620.45
2023-03-29T03:04:39.908Z,100620.27
2023-03-29T03:07:07.486Z,100626.71
2023-03-29T03:09:36.321Z,100628.29
2023-03-29T03:12:04.034Z,100630.95
2023-03-29T03:14:31.883Z,100631.55
2023-03-29T03:17:00.657Z,100633.38
2023-03-29T03:19:29.946Z,100630.27
2023-03-29T03:21:57.575Z,100631.42
2023-03-29T03:24:25.207Z,100635.14
2023-03-29T03:26:53.184Z,100637.29
2023-03-29T03:29:20.794Z,100633.30
2023-03-29T03:31:48.916Z,100633.08
2023-03-29T03:34:17.377Z,100634.77
2023-03-29T03:36:47.153Z,100636.44
2023-03-29T03:39:14.677Z,100636.73
2023-03-29T03:41:42.258Z,100635.04
2023-03-29T03:44:09.835Z,100639.42
2023-03-29T03:46:38.097Z,100642.81
2023-03-29T03:49:05.650Z,100646.24
2023-03-29T03:51:33.230Z,100651.13
2023-03-29T03:54:01.033Z,100651.00
2023-03-29T03:56:29.817Z,100649.27
2023-03-29T03:58:57.391Z,100648.67
2023-03-29T04:01:27.122Z,100645.16
2023-03-29T04:03:55.160Z,100648.88
2023-03-29T04:06:22.728Z,100648.90
2023-03-29T04:08:50.519Z,100649.89
2023-03-29T04:11:18.058Z,100653.96
2023-03-29T04:13:46.199Z,100651.90
2023-03-29T04:16:13.770Z,100650.11
2023-03-29T04:18:41.531Z,100652.11
2023-03-29T04:21:09.154Z,100650.35
2023-03-29T04:23:36.657Z,100652.86
2023-03-29T04:26:04.566Z,100656.06
2023-03-29T04:28:32.905Z,100656.07
2023-03-29T04:31:01.747Z,100655.91
2023-03-29T04:33:29.581Z,100659.50
2023-03-29T04:35:57.498Z,100659.66
2023-03-29T04:38:26.519Z,100659.48
2023-03-29T04:40:55.604Z,100660.15
2023-03-29T04:43:23.594Z,100657.15
2023-03-29T04:45:51.358Z,100657.89
2023-03-29T04:48:18.984Z,100657.79
2023-03-29T04:50:47.431Z,100654.79
2023-03-29T04:53:14.932Z,100654.89
2023-03-29T04:55:42.626Z,100651.80
2023-03-29T04:58:10.148Z,100651.52
2023-03-29T05:00:37.899Z,100648.89
2023-03-29T05:03:06.831Z,100647.42
2023-03-29T05:05:35.359Z,100648.27
2023-03-29T05:08:03.487Z,100648.72
2023-03-29T05:10:31.253Z,100655.67
2023-03-29T05:12:58.756Z,100651.04
2023-03-29T05:15:26.515Z,100652.16
2023-03-29T05:17:54.314Z,100650.22
2023-03-29T05:20:22.185Z,100656.35
2023-03-29T05:22:49.690Z,100654.94
2023-03-29T05:25:18.793Z,100654.52
2023-03-29T05:27:46.479Z,100655.64
2023-03-29T05:30:18.115Z,100657.26
2023-03-29T05:32:48.351Z,100658.89
2023-03-29T05:35:16.226Z,100661.63
2023-03-29T05:37:43.855Z,100659.12
2023-03-29T05:40:14.631Z,100663.66
2023-03-29T05:42:42.234Z,100661.85
2023-03-29T05:45:11.429Z,100665.09
2023-03-29T05:47:38.966Z,100667.61
2023-03-29T05:50:09.744Z,100665.13
2023-03-29T05:52:38.730Z,100663.02
2023-03-29T05:55:07.356Z,100660.27
2023-03-29T05:57:37.549Z,100657.44
2023-03-29T06:00:25.098Z,100658.86
2023-03-29T06:02:53.849Z,100661.15
2023-03-29T06:05:21.527Z,100656.40
2023-03-29T06:07:50.029Z,100659.95
2023-03-29T06:10:19.673Z,100656.88
2023-03-29T06:12:49.319Z,100660.80
2023-03-29T06:15:17.657Z,100655.50
2023-03-29T06:17:46.053Z,100661.00
2023-03-29T06:20:14.769Z,100661.70
2023-03-29T06:22:42.431Z,100657.27
2023-03-29T06:25:15.177Z,100660.73
2023-03-29T06:27:42.924Z,100659.82
2023-03-29T06:30:12.257Z,100657.15
2023-03-29T06:32:40.183Z,100659.12
2023-03-29T06:35:09.117Z,100660.88
2023-03-29T06:37:40.271Z,100659.39
2023-03-29T06:40:09.989Z,100662.76
2023-03-29T06:42:37.746Z,100664.42
2023-03-29T06:45:06.411Z,100662.65
2023-03-29T06:47:34.114Z,100664.97
2023-03-29T06:50:01.768Z,100659.56
2023-03-29T06:52:29.405Z,100663.23
2023-03-29T06:54:57.343Z,100659.85
2023-03-29T06:57:25.374Z,100664.62
2023-03-29T06:59:54.116Z,100668.70
2023-03-29T07:02:22.624Z,100662.77
2023-03-29T07:04:50.454Z,100660.86
2023-03-29T07:07:21.989Z,100655.33
2023-03-29T07:09:53.950Z,100655.40
2023-03-29T07:12:22.986Z,100656.84
2023-03-29T07:14:50.625Z,100654.77
2023-03-29T07:17:23.010Z,100655.52
2023-03-29T07:19:51.431Z,100654.23
2023-03-29T07:22:19.690Z,100651.59
2023-03-29T07:24:49.327Z,100654.27
2023-03-29T07:27:18.085Z,100654.20
2023-03-29T07:29:46.621Z,100655.29
2023-03-29T07:32:14.316Z,100648.09
2023-03-29T07:34:42.414Z,100648.95
2023-03-29T07:37:13.292Z,100646.89
2023-03-29T07:39:44.794Z,100639.81
2023-03-29T07:42:12.708Z,100638.60
2023-03-29T07:44:42.440Z,100632.98
2023-03-29T07:47:13.782Z,100636.79
2023-03-29T07:49:42.428Z,100636.13
2023-03-29T07:52:10.019Z,100638.50
2023-03-29T07:54:38.537Z,100640.50
2023-03-29T07:57:06.778Z,100639.73
2023-03-29T07:59:34.277Z,100640.02
2023-03-29T08:02:01.777Z,100641.85
2023-03-29T08:04:29.627Z,100641.88
2023-03-29T08:06:57.493Z,100641.25
2023-03-29T08:09:25.855Z,100640.81
2023-03-29T08:11:53.493Z,100641.80
2023-03-29T08:14:23.715Z,100638.82
2023-03-29T08:16:52.581Z,100638.45
2023-03-29T08:19:20.338Z,100643.73
2023-03-29T08:21:48.092Z,100636.55
2023-03-29T08:24:15.980Z,100636.24
2023-03-29T08:26:43.533Z,100632.66
2023-03-29T08:29:11.444Z,100633.65
2023-03-29T08:31:38.972Z,100624.54
2023-03-29T08:34:06.988Z,100623.36
2023-03-29T08:36:34.794Z,100619.53
2023-03-29T08:39:03.354Z,100617.96
2023-03-29T08:42:05.630Z,100617.23
2023-03-29T08:45:03.711Z,100614.09
2023-03-29T08:48:13.577Z,100610.68
2023-03-29T08:50:50.339Z,100609.61
2023-03-29T08:53:45.184Z,100613.65
2023-03-29T08:56:18.554Z,100607.41
2023-03-29T08:58:48.110Z,100603.52
2023-03-29T09:01:16.461Z,100597.08
2023-03-29T09:03:50.528Z,100597.73
2023-03-29T09:06:24.264Z,100598.16
2023-03-29T09:08:53.481Z,100596.14
2023-03-29T09:11:30.197Z,100597.23
2023-03-29T09:14:25.210Z,100596.58
2023-03-29T09:17:10.022Z,100591.29
2023-03-29T09:20:12.373Z,100584.30
2023-03-29T09:23:13.922Z,100592.96
2023-03-29T09:25:54.051Z,100581.73
2023-03-29T09:28:31.214Z,100581.57
2023-03-29T09:31:14.577Z,100581.23
2023-03-29T09:33:49.117Z,100578.10
2023-03-29T09:36:24.761Z,100582.04
2023-03-29T09:38:54.455Z,100573.74
2023-03-29T09:41:36.462Z,100571.27
2023-03-29T09:46:55.896Z,100561.52
2023-03-29T09:49:29.084Z,100561.83
2023-03-29T09:52:04.829Z,100558.65
2023-03-29T09:54:32.762Z,100561.14
2023-03-29T09:57:01.109Z,100566.17
2023-03-29T09:59:29.097Z,100561.38
2023-03-29T10:02:07.769Z,100554.95
2023-03-29T10:04:36.894Z,100550.61
2023-03-29T10:07:07.920Z,100547.11
2023-03-29T10:09:35.871Z,100544.48
2023-03-29T10:12:08.049Z,100540.23
2023-03-29T10:14:53.991Z,100534.84
2023-03-29T10:17:26.102Z,100533.61
2023-03-29T10:20:03.954Z,100539.21
2023-03-29T10:22:38.384Z,100527.21
2023-03-29T10:25:15.890Z,100523.16
2023-03-29T10:27:47.970Z,100517.92
2023-03-29T10:30:24.266Z,100516.27
2023-03-29T10:32:56.828Z,100527.09
2023-03-29T10:35:39.953Z,100523.18
2023-03-29T10:38:14.945Z,100519.34
2023-03-29T10:40:51.810Z,100519.14
2023-03-29T10:43:29.777Z,100518.10
2023-03-29T10:46:19.728Z,100516.59
2023-03-29T10:48:50.531Z,100514.72
2023-03-29T10:51:19.893Z,100515.02
2023-03-29T10:53:47.586Z,100508.70
2023-03-29T10:56:47.042Z,100503.47
2023-03-29T10:59:32.680Z,100497.77
2023-03-29T11:02:24.587Z,100490.92
2023-03-29T11:05:24.945Z,100487.93
2023-03-29T11:08:08.694Z,100488.98
2023-03-29T11:10:46.064Z,100487.00
2023-03-29T11:13:46.439Z,100488.54
2023-03-29T11:16:39.425Z,100490.58
2023-03-29T11:19:38.858Z,100480.27
2023-03-29T11:22:26.621Z,100470.27
2023-03-29T11:25:12.396Z,100464.33
2023-03-29T11:28:05.104Z,100459.05
2023-03-29T11:30:48.776Z,100455.98
2023-03-29T11:33:19.408Z,100451.92
2023-03-29T11:36:25.875Z,100443.54
2023-03-29T11:38:59.346Z,100446.55
2023-03-29T11:41:32.071Z,100443.34
2023-03-29T11:44:09.258Z,100439.30
2023-03-29T11:46:46.873Z,100434.55
2023-03-29T11:49:41.962Z,100437.38
2023-03-29T11:52:33.681Z,100431.45
2023-03-29T11:55:19.195Z,100428.00
2023-03-29T11:58:04.786Z,100424.57
2023-03-29T12:00:41.073Z,100425.70
2023-03-29T12:03:32.448Z,100423.48
2023-03-29T12:06:25.462Z,100414.67
2023-03-29T12:09:02.686Z,100413.43
2023-03-29T12:11:49.070Z,100416.10
2023-03-29T12:14:39.261Z,100410.84
2023-03-29T12:17:15.091Z,100420.77
2023-03-29T12:19:54.540Z,100409.04
2023-03-29T12:22:22.612Z,100405.83
2023-03-29T12:24:54.717Z,100403.52
2023-03-29T12:27:27.089Z,100402.83
2023-03-29T12:30:27.185Z,100391.96
2023-03-29T12:33:03.975Z,100389.08
2023-03-29T12:35:40.606Z,100383.36
2023-03-29T12:38:31.276Z,100382.13
2023-03-29T12:41:25.410Z,100383.94
2023-03-29T12:43:53.626Z,100385.70
2023-03-29T12:46:27.054Z,100380.99
2023-03-29T12:48:58.173Z,100378.59
2023-03-29T12:51:35.997Z,100368.64
2023-03-29T12:54:13.918Z,100369.60
2023-03-29T12:56:58.610Z,100362.95
2023-03-29T12:59:47.830Z,100348.99
2023-03-29T13:02:15.496Z,100350.17
2023-03-29T13:04:43.646Z,100348.64
2023-03-29T13:07:28.464Z,100353.23
2023-03-29T13:09:57.958Z,100343.75
2023-03-29T13:12:45.789Z,100346.70
2023-03-29T13:15:19.472Z,100347.64
2023-03-29T13:18:16.134Z,100343.58
2023-03-29T13:20:46.760Z,100347.65
2023-03-29T13:23:27.388Z,100334.98
2023-03-29T13:26:27.284Z,100338.93
2023-03-29T13:29:20.013Z,100339.86
2023-03-29T13:32:01.741Z,100340.33
2023-03-29T13:34:53.675Z,100342.45
2023-03-29T13:37:24.567Z,100353.26
2023-03-29T13:39:54.965Z,100356.06
2023-03-29T13:42:40.992Z,100356.13
2023-03-29T13:45:30.010Z,100361.33
2023-03-29T13:48:20.566Z,100353.73
2023-03-29T13:51:18.693Z,100358.13
2023-03-29T13:53:53.129Z,100355.13
2023-03-29T13:56:30.934Z,100350.61
2023-03-29T13:59:18.831Z,100346.64
2023-03-29T14:01:53.468Z,100350.78
2023-03-29T14:04:25.761Z,100347.38
2023-03-29T14:06:57.467Z,100345.50
2023-03-29T14:09:30.321Z,100344.19
2023-03-29T14:12:01.713Z,100342.14
2023-03-29T14:14:32.754Z,100346.33
2023-03-29T14:17:01.514Z,100342.42
2023-03-29T14:19:39.036Z,100340.95
2023-03-29T14:22:18.838Z,100335.32
2023-03-29T14:24:58.814Z,100337.95
2023-03-29T14:27:32.267Z,100331.77
2023-03-29T14:30:00.708Z,100326.33
2023-03-29T14:32:32.251Z,100320.27
2023-03-29T14:35:01.051Z,100317.85
2023-03-29T14:37:29.774Z,100315.36
2023-03-29T14:39:59.500Z,100315.29
2023-03-29T14:42:29.217Z,100311.10
2023-03-29T14:45:04.507Z,100308.94
2023-03-29T14:47:34.686Z,100308.80
2023-03-29T14:50:04.708Z,100305.33
2023-03-29T14:52:33.509Z,100312.98
2023-03-29T14:55:04.022Z,100309.96
2023-03-29T14:57:38.259Z,100307.46
2023-03-29T15:00:22.715Z,100305.55
2023-03-29T15:03:01.742Z,100302.50
2023-03-29T15:05:38.156Z,100293.59
2023-03-29T15:08:11.868Z,100293.84
2023-03-29T15:10:42.949Z,100286.17
2023-03-29T15:13:20.021Z,100279.05
2023-03-29T15:15:52.431Z,100273.77
2023-03-29T15:18:25.242Z,100273.48
2023-03-29T15:20:53.010Z,100270.23
2023-03-29T15:23:23.791Z,100270.64
2023-03-29T15:25:58.792Z,100266.38
2023-03-29T15:28:31.173Z,100255.76
2023-03-29T15:31:07.962Z,100257.77
2023-03-29T15:33:39.371Z,100259.16
2023-03-29T15:36:20.276Z,100259.38
2023-03-29T15:38:49.729Z,100253.75
2023-03-29T15:41:17.272Z,100253.00
2023-03-29T15:43:44.781Z,100253.41
2023-03-29T15:46:13.876Z,100251.23
2023-03-29T15:48:42.173Z,100250.37
2023-03-29T15:51:13.396Z,100248.34
2023-03-29T15:53:41.441Z,100242.09
2023-03-29T15:56:13.255Z,100239.14
2023-03-29T15:58:41.055Z,100235.33
2023-03-29T16:01:23.665Z,100236.79
2023-03-29T16:03:51.884Z,100236.52
2023-03-29T16:06:22.018Z,100238.96
2023-03-29T16:08:49.541Z,100240.95
2023-03-29T16:11:17.372Z,100237.17
2023-03-29T16:13:45.123Z,100235.14
2023-03-29T16:16:12.770Z,100231.33
2023-03-29T16:18:41.215Z,100232.18
2023-03-29T16:21:14.322Z,100231.80
2023-03-29T16:23:42.932Z,100230.96
2023-03-29T16:26:12.733Z,100226.41
2023-03-29T16:28:41.241Z,100225.20
2023-03-29T16:31:13.273Z,100228.27
2023-03-29T16:33:41.325Z,100227.96
2023-03-29T16:36:10.009Z,100224.77
2023-03-29T16:38:38.342Z,100223.95
2023-03-29T16:41:07.110Z,100221.21
2023-03-29T16:43:35.298Z,100215.34
2023-03-29T16:46:03.875Z,100215.52
2023-03-29T16:48:32.002Z,100210.38
2023-03-29T16:50:59.717Z,100206.92
2023-03-29T16:53:28.398Z,100210.95
2023-03-29T16:55:57.330Z,100212.52
2023-03-29T16:58:24.894Z,100214.39
2023-03-29T17:00:53.551Z,100213.16
2023-03-29T17:03:21.173Z,100216.10
2023-03-29T17:05:50.610Z,100218.31
2023-03-29T17:08:18.805Z,100221.21
2023-03-29T17:10:47.254Z,100219.96
2023-03-29T17:13:14.776Z,100213.17
2023-03-29T17:15:42.447Z,100213.11
2023-03-29T17:18:10.091Z,100208.55
2023-03-29T17:20:40.875Z,100209.52
2023-03-29T17:23:09.731Z,100205.11
2023-03-29T17:25:37.535Z,100211.95
2023-03-29T17:28:05.018Z,100215.84
2023-03-29T17:30:35.022Z,100214.18
2023-03-29T17:33:03.961Z,100219.44
2023-03-29T17:35:32.057Z,100216.90
2023-03-29T17:38:00.455Z,100218.16
2023-03-29T17:40:28.149Z,100217.86
2023-03-29T17:42:56.136Z,100219.27
2023-03-29T17:45:24.153Z,100215.31
2023-03-29T17:47:51.840Z,100213.98
2023-03-29T17:50:19.623Z,100213.32
2023-03-29T17:52:47.749Z,100211.12
2023-03-29T17:55:15.646Z,100212.70
2023-03-29T17:57:43.818Z,100216.00
2023-03-29T18:00:13.892Z,100214.65
2023-03-29T18:02:41.933Z,100218.65
2023-03-29T18:05:12.256Z,100214.19
2023-03-29T18:07:40.553Z,100217.52
2023-03-29T18:10:08.465Z,100219.95
2023-03-29T18:12:36.939Z,100217.73
2023-03-29T18:15:08.972Z,100218.95
2023-03-29T18:17:37.156Z,100224.31
2023-03-29T18:20:11.090Z,100224.34
2023-03-29T18:22:42.074Z,100224.88
2023-03-29T18:25:11.257Z,100229.73
2023-03-29T18:27:39.720Z,100223.01
2023-03-29T18:30:08.766Z,100224.76
2023-03-29T18:32:36.898Z,100229.09
2023-03-29T18:35:07.257Z,100224.60
2023-03-29T18:37:34.827Z,100219.77
2023-03-29T18:40:02.414Z,100222.21
2023-03-29T18:42:30.914Z,100220.31
2023-03-29T18:44:58.720Z,100214.79
2023-03-29T18:47:27.069Z,100215.67
2023-03-29T18:49:54.755Z,100212.58
2023-03-29T18:52:23.404Z,100213.28
2023-03-29T18:54:51.396Z,100210.86
2023-03-29T18:57:19.457Z,100211.92
2023-03-29T18:59:47.362Z,100207.77
2023-03-29T19:02:15.611Z,100204.66
2023-03-29T19:04:43.402Z,100201.58
2023-03-29T19:07:10.991Z,100200.90
2023-03-29T19:09:38.849Z,100205.75
2023-03-29T19:12:06.650Z,100203.67
2023-03-29T19:14:34.202Z,100199.39
2023-03-29T19:17:01.754Z,100194.06
2023-03-29T19:19:29.490Z,100190.10
2023-03-29T19:22:00.277Z,100191.33
2023-03-29T19:24:28.374Z,100189.11
2023-03-29T19:26:56.473Z,100186.20
2023-03-29T19:29:24.469Z,100185.70
2023-03-29T19:31:55.014Z,100183.65
2023-03-29T19:34:24.308Z,100177.11
2023-03-29T19:36:53.785Z,100171.43
2023-03-29T19:39:22.296Z,100174.73
2023-03-29T19:41:49.893Z,100171.96
2023-03-29T19:44:17.440Z,100177.67
2023-03-29T19:46:44.960Z,100171.66
2023-03-29T19:49:13.665Z,100170.98
2023-03-29T19:51:43.070Z,100171.85
2023-03-29T19:54:13.193Z,100170.98
2023-03-29T19:56:42.503Z,100169.46
2023-03-29T19:59:11.010Z,100165.48
2023-03-29T20:01:42.667Z,100164.96
2023-03-29T20:04:11.803Z,100163.94
2023-03-29T20:06:40.224Z,100164.10
2023-03-29T20:09:08.767Z,100159.10
2023-03-29T20:11:36.422Z,100161.17
2023-03-29T20:14:04.912Z,100152.20
2023-03-29T20:16:35.871Z,100149.77
2023-03-29T20:19:08.153Z,100148.05
2023-03-29T20:21:38.710Z,100146.83
2023-03-29T20:24:08.545Z,100145.11
2023-03-29T20:26:37.019Z,100147.20
2023-03-29T20:29:04.619Z,100142.19
2023-03-29T20:31:32.323Z,100141.14
2023-03-29T20:34:00.869Z,100141.84
2023-03-29T20:36:30.349Z,100137.54
2023-03-29T20:38:59.228Z,100134.08
2023-03-29T20:41:27.081Z,100133.73
2023-03-29T20:43:58.430Z,100129.08
2023-03-29T20:46:33.372Z,100131.67
2023-03-29T20:49:04.371Z,100133.59
2023-03-29T20:51:32.218Z,100127.89
2023-03-29T20:54:04.834Z,100123.41
2023-03-29T20:56:38.541Z,100122.73
2023-03-29T20:59:10.397Z,100119.80
2023-03-29T21:01:41.294Z,100116.35
2023-03-29T21:04:10.546Z,100109.98
2023-03-29T21:06:41.367Z,100100.50
2023-03-29T21:09:08.883Z,100106.88
2023-03-29T21:11:36.439Z,100106.71
2023-03-29T21:14:04.410Z,100103.42
2023-03-29T21:16:31.994Z,100100.84
2023-03-29T21:18:59.691Z,100105.84
2023-03-29T21:21:29.433Z,100097.23
2023-03-29T21:23:57.040Z,100096.35
2023-03-29T21:26:24.584Z,100092.21
2023-03-29T21:28:52.141Z,100092.21
2023-03-29T21:31:19.782Z,100091.17
2023-03-29T21:33:47.381Z,100083.39
2023-03-29T21:36:15.266Z,100081.50
2023-03-29T21:38:42.821Z,100074.95
2023-03-29T21:41:12.183Z,100075.46
2023-03-29T21:43:40.286Z,100073.08
2023-03-29T21:46:07.994Z,100068.76
2023-03-29T21:48:36.020Z,100061.88
2023-03-29T21:51:04.146Z,100065.16
2023-03-29T21:53:31.885Z,100065.17
2023-03-29T21:55:59.677Z,100061.39
2023-03-29T21:58:27.293Z,100062.23
2023-03-29T22:00:56.888Z,100064.29
2023-03-29T22:03:25.497Z,100069.46
2023-03-29T22:06:02.585Z,100065.33
2023-03-29T22:08:30.788Z,100061.20
2023-03-29T22:11:08.282Z,100058.77
2023-03-29T22:13:36.641Z,100056.54
2023-03-29T22:16:05.054Z,100052.05
2023-03-29T22:18:43.754Z,100055.68
2023-03-29T22:21:15.207Z,100057.57
2023-03-29T22:23:45.801Z,100053.95
2023-03-29T22:26:15.647Z,100052.05
2023-03-29T22:28:43.468Z,100044.12
2023-03-29T22:31:14.453Z,100043.41
2023-03-29T22:33:42.501Z,100043.58
2023-03-29T22:36:17.314Z,100045.83
2023-03-29T22:38:46.731Z,100042.20
2023-03-29T22:41:15.777Z,100038.75
2023-03-29T22:43:43.694Z,100035.98
2023-03-29T22:46:13.834Z,100036.66
2023-03-29T22:48:41.639Z,100031.14
2023-03-29T22:51:09.130Z,100027.34
2023-03-29T22:53:36.934Z,100023.38
2023-03-29T22:56:06.928Z,100024.06
2023-03-29T22:58:36.208Z,100024.59
2023-03-29T23:01:05.705Z,100026.67
2023-03-29T23:03:34.209Z,100023.23
2023-03-29T23:06:04.608Z,100019.09
2023-03-29T23:08:34.211Z,100018.57
2023-03-29T23:11:02.448Z,100019.09
2023-03-29T23:13:30.662Z,100013.59
2023-03-29T23:16:00.452Z,100012.20
2023-03-29T23:18:30.580Z,100008.42
2023-03-29T23:20:59.079Z,100011.70
2023-03-29T23:23:28.425Z,100010.69
2023-03-29T23:25:57.793Z,100010.51
2023-03-29T23:28:30.109Z,100008.80
2023-03-29T23:31:00.518Z,100005.52
2023-03-29T23:33:33.107Z,100002.41
2023-03-29T23:36:04.303Z,100002.25
2023-03-29T23:38:34.136Z,99997.08
2023-03-29T23:41:06.802Z,99992.77
2023-03-29T23:43:40.247Z,99993.45
2023-03-29T23:46:13.266Z,99991.73
2023-03-29T23:48:45.690Z,99994.15
2023-03-29T23:51:13.560Z,99994.66
2023-03-29T23:53:41.445Z,99993.11
2023-03-29T23:56:09.468Z,99990.01
2023-03-29T23:58:38.004Z,99983.29
